Time;durP1;ratioP1;P1;durP2;ratioP2;P2;SDS_P1;SDS_P2;PMS_P1;PMS_P2;Temp;Humidity;BMP_temperature;BMP_pressure;BME280_temperature;BME280_humidity;BME280_pressure;Samples;Min_cycle;Max_cycle;Signal;HPM_P1;HPM_P2
2022/09/04 00:00:32;;;;;;;5.00;2.47;;;21.40;62.00;;;;;;5060234;28;20029;-81
2022/09/04 00:03:37;;;;;;;5.80;2.80;;;21.40;61.90;;;;;;5063835;28;20469;-80
2022/09/04 00:06:12;;;;;;;2.97;2.33;;;21.30;61.80;;;;;;5048131;28;20021;-80
2022/09/04 00:08:59;;;;;;;3.38;2.97;;;21.40;61.90;;;;;;5042948;28;20176;-80
2022/09/04 00:11:50;;;;;;;4.53;2.35;;;21.40;62.00;;;;;;5061225;28;20024;-79
2022/09/04 00:14:23;;;;;;;2.72;2.38;;;21.30;61.90;;;;;;5058230;28;20597;-81
2022/09/04 00:17:03;;;;;;;3.92;2.83;;;21.30;61.90;;;;;;5044202;28;20047;-81
2022/09/04 00:19:38;;;;;;;5.72;2.95;;;21.30;62.00;;;;;;5065043;28;20112;-81
2022/09/04 00:22:29;;;;;;;4.57;3.00;;;21.30;62.00;;;;;;5084960;28;20024;-81
2022/09/04 00:25:25;;;;;;;3.58;3.00;;;21.30;62.10;;;;;;5083850;28;20436;-81
2022/09/04 00:28:01;;;;;;;6.10;3.92;;;21.30;62.10;;;;;;5005870;28;20169;-80
2022/09/04 00:30:27;;;;;;;4.47;2.42;;;21.30;62.10;;;;;;5057453;28;20031;-80
2022/09/04 00:33:10;;;;;;;4.85;2.65;;;21.30;62.10;;;;;;5062226;28;20039;-80
2022/09/04 00:35:39;;;;;;;;;;;21.30;62.20;;;;;;5076858;28;20040;-81
2022/09/04 00:38:23;;;;;;;6.15;2.55;;;21.30;62.10;;;;;;5084261;28;20005;-81
2022/09/04 00:41:12;;;;;;;4.13;2.95;;;21.40;62.30;;;;;;5023017;28;20040;-81
2022/09/04 00:43:51;;;;;;;2.67;2.40;;;21.40;62.40;;;;;;5078909;28;20052;-81
2022/09/04 00:46:36;;;;;;;4.85;3.15;;;21.40;62.50;;;;;;5059221;28;20020;-81
2022/09/04 00:49:02;;;;;;;5.40;2.80;;;21.40;62.60;;;;;;5069445;28;20312;-81
2022/09/04 00:51:34;;;;;;;3.80;3.40;;;21.40;62.50;;;;;;5047533;28;20036;-81
2022/09/04 00:54:25;;;;;;;4.45;2.83;;;21.50;62.80;;;;;;5039509;28;20017;-81
2022/09/04 00:57:34;;;;;;;3.10;2.67;;;21.40;62.70;;;;;;5048121;28;20065;-81
2022/09/04 01:00:03;;;;;;;4.70;3.28;;;21.40;62.70;;;;;;4978819;28;20639;-81
2022/09/04 01:02:35;;;;;;;3.63;2.63;;;21.50;62.80;;;;;;5051095;28;20101;-81
2022/09/04 01:05:25;;;;;;;5.47;3.92;;;21.50;62.90;;;;;;5084049;28;20036;-81
2022/09/04 01:08:22;;;;;;;4.32;3.33;;;21.50;62.90;;;;;;5084302;28;20024;-81
2022/09/04 01:10:48;;;;;;;4.65;3.42;;;21.50;63.10;;;;;;5062527;28;20613;-81
2022/09/04 01:13:32;;;;;;;4.57;2.60;;;21.50;63.00;;;;;;5070486;28;20040;-81
2022/09/04 01:16:25;;;;;;;5.10;3.72;;;21.50;63.20;;;;;;5059573;28;20045;-81
2022/09/04 01:19:22;;;;;;;3.55;2.72;;;21.50;63.30;;;;;;5074704;28;20044;-81
2022/09/04 01:22:01;;;;;;;5.20;3.00;;;21.50;63.20;;;;;;5046491;28;20039;-81
2022/09/04 01:25:13;;;;;;;4.03;2.90;;;21.50;63.20;;;;;;5046940;28;20053;-81
2022/09/04 01:27:57;;;;;;;4.68;3.08;;;21.50;63.30;;;;;;5044340;28;20799;-81
2022/09/04 01:30:23;;;;;;;5.55;3.15;;;21.50;63.30;;;;;;5085174;28;20101;-81
2022/09/04 01:32:58;;;;;;;3.20;2.75;;;21.50;63.30;;;;;;5026967;28;20040;-80
2022/09/04 01:35:40;;;;;;;5.78;3.25;;;21.50;63.40;;;;;;5055051;28;20396;-80
2022/09/04 01:38:39;;;;;;;4.63;2.70;;;21.50;63.50;;;;;;5085888;28;20449;-81
2022/09/04 01:41:36;;;;;;;3.90;3.10;;;21.40;63.40;;;;;;5066553;28;20032;-81
2022/09/04 01:44:06;;;;;;;3.88;2.65;;;21.50;63.50;;;;;;5080715;28;20072;-81
2022/09/04 01:47:04;;;;;;;4.60;2.67;;;21.50;63.40;;;;;;5075841;28;20052;-81
2022/09/04 01:49:35;;;;;;;5.63;2.95;;;21.50;63.60;;;;;;5062034;28;20476;-81
2022/09/04 01:52:07;;;;;;;4.00;2.72;;;21.50;63.50;;;;;;5067297;28;20032;-81
2022/09/04 01:54:38;;;;;;;3.75;2.65;;;21.50;63.50;;;;;;5082829;28;20058;-80
2022/09/04 01:57:14;;;;;;;3.13;2.45;;;21.60;63.70;;;;;;5066577;28;20047;-82
2022/09/04 01:59:45;;;;;;;5.85;2.67;;;21.60;63.70;;;;;;5051435;28;20032;-83
2022/09/04 02:02:26;;;;;;;6.70;2.60;;;21.50;63.50;;;;;;5067971;28;20044;-83
2022/09/04 02:05:08;;;;;;;4.50;2.50;;;21.60;63.80;;;;;;5088086;28;20036;-80
2022/09/04 02:07:58;;;;;;;3.58;2.30;;;21.60;63.80;;;;;;5088211;28;20040;-80
2022/09/04 02:10:52;;;;;;;3.67;2.80;;;21.60;63.70;;;;;;5064960;28;20031;-80
2022/09/04 02:13:21;;;;;;;5.80;2.85;;;21.60;63.70;;;;;;5085791;28;20066;-80
2022/09/04 02:16:16;;;;;;;2.53;1.98;;;21.60;63.60;;;;;;5081085;28;20029;-78
2022/09/04 02:19:26;;;;;;;3.85;2.45;;;21.60;63.70;;;;;;5069406;28;20055;-78
2022/09/04 02:22:14;;;;;;;2.42;1.90;;;21.60;63.70;;;;;;5048915;28;20044;-78
2022/09/04 02:24:47;;;;;;;4.82;2.30;;;21.60;63.70;;;;;;5056595;28;20027;-80
2022/09/04 02:27:54;;;;;;;5.47;2.78;;;21.60;63.70;;;;;;5070953;28;20024;-79
2022/09/04 02:30:21;;;;;;;6.57;3.00;;;21.60;63.80;;;;;;5042145;28;20082;-80
2022/09/04 02:33:21;;;;;;;3.38;2.10;;;21.60;63.70;;;;;;5067902;28;20027;-81
2022/09/04 02:36:03;;;;;;;4.95;2.22;;;21.60;63.80;;;;;;5057843;28;20031;-80
2022/09/04 02:38:41;;;;;;;4.13;2.60;;;21.50;63.50;;;;;;5069523;28;20043;-81
2022/09/04 02:41:37;;;;;;;3.25;2.00;;;21.60;63.70;;;;;;5062002;28;20028;-80
2022/09/04 02:44:24;;;;;;;9.25;3.42;;;21.50;63.60;;;;;;5055001;28;20088;-80
2022/09/04 02:47:01;;;;;;;4.18;2.08;;;21.50;63.60;;;;;;5062987;28;20050;-80
2022/09/04 02:49:54;;;;;;;4.90;2.05;;;21.50;63.60;;;;;;5071514;28;20035;-80
2022/09/04 02:52:42;;;;;;;3.80;2.40;;;21.50;63.60;;;;;;5016221;28;20040;-80
2022/09/04 02:55:30;;;;;;;2.67;1.67;;;21.50;63.70;;;;;;5060749;28;20515;-80
2022/09/04 02:58:04;;;;;;;6.38;1.90;;;21.50;63.70;;;;;;5072359;28;20033;-81
2022/09/04 03:00:56;;;;;;;4.50;1.70;;;21.50;63.70;;;;;;5060102;28;20040;-80
2022/09/04 03:03:55;;;;;;;2.97;1.80;;;21.50;63.80;;;;;;5066340;28;20255;-81
2022/09/04 03:06:40;;;;;;;4.47;1.77;;;21.50;63.80;;;;;;5084641;28;20108;-80
2022/09/04 03:09:12;;;;;;;3.55;1.60;;;21.50;63.80;;;;;;5072725;28;20016;-81
2022/09/04 03:11:51;;;;;;;1.98;1.25;;;21.50;63.80;;;;;;5068514;28;20062;-80
2022/09/04 03:14:51;;;;;;;3.22;1.60;;;21.50;63.80;;;;;;5062624;28;20024;-80
2022/09/04 03:17:23;;;;;;;4.78;1.88;;;21.50;63.90;;;;;;4995646;28;20398;-80
2022/09/04 03:20:15;;;;;;;4.17;1.67;;;21.50;63.80;;;;;;5088242;28;20089;-80
2022/09/04 03:22:49;;;;;;;2.50;1.30;;;21.50;63.90;;;;;;5064655;28;20032;-80
2022/09/04 03:25:46;;;;;;;3.63;1.25;;;21.50;63.80;;;;;;5062678;28;20038;-80
2022/09/04 03:28:34;;;;;;;3.97;1.35;;;21.50;63.90;;;;;;5052879;28;20036;-80
2022/09/04 03:31:22;;;;;;;5.43;1.60;;;21.50;63.80;;;;;;5090921;28;20512;-80
2022/09/04 03:34:01;;;;;;;3.67;1.50;;;21.50;63.80;;;;;;5064453;28;20042;-81
2022/09/04 03:36:55;;;;;;;3.60;1.98;;;21.50;64.30;;;;;;5072639;28;20024;-80
2022/09/04 03:39:45;;;;;;;2.63;1.50;;;21.50;63.80;;;;;;5064870;28;20318;-81
2022/09/04 03:42:30;;;;;;;4.32;1.90;;;21.50;63.80;;;;;;5058973;28;20028;-81
2022/09/04 03:45:05;;;;;;;5.47;2.00;;;21.50;63.90;;;;;;5090804;28;20495;-81
2022/09/04 03:47:54;;;;;;;3.53;1.80;;;21.50;63.90;;;;;;5065037;28;20217;-82
2022/09/04 03:50:35;;;;;;;4.65;1.63;;;21.50;63.90;;;;;;5060403;28;20474;-81
2022/09/04 03:53:28;;;;;;;4.22;1.63;;;21.50;63.90;;;;;;5088480;28;20027;-81
2022/09/04 03:56:24;;;;;;;3.35;1.30;;;21.50;64.00;;;;;;5074915;28;20466;-82
2022/09/04 03:59:07;;;;;;;4.60;1.65;;;21.50;64.10;;;;;;5066594;28;20028;-82
2022/09/04 04:01:45;;;;;;;4.35;1.27;;;21.50;64.10;;;;;;5067319;28;20032;-81
2022/09/04 04:04:42;;;;;;;5.60;1.80;;;21.50;64.00;;;;;;5089044;28;20508;-81
2022/09/04 04:07:24;;;;;;;8.25;1.70;;;21.50;64.20;;;;;;5047999;28;20343;-80
2022/09/04 04:10:07;;;;;;;4.00;1.90;;;21.50;64.20;;;;;;5071265;28;20024;-79
2022/09/04 04:12:33;;;;;;;4.20;1.77;;;21.40;64.00;;;;;;5082140;28;20040;-79
2022/09/04 04:15:45;;;;;;;4.45;1.17;;;21.50;64.20;;;;;;5082412;28;20039;-79
2022/09/04 04:18:42;;;;;;;7.93;2.10;;;21.50;64.30;;;;;;5070104;28;20054;-79
2022/09/04 04:21:54;;;;;;;3.92;2.10;;;21.50;64.30;;;;;;5058811;28;20031;-81
2022/09/04 04:24:49;;;;;;;3.10;1.52;;;21.50;64.30;;;;;;5056893;28;20082;-80
2022/09/04 04:27:21;;;;;;;4.43;1.63;;;21.50;64.20;;;;;;5062331;28;20029;-80
2022/09/04 04:29:47;;;;;;;4.30;1.70;;;21.50;64.20;;;;;;5076203;28;20025;-80
2022/09/04 04:32:24;;;;;;;2.40;1.60;;;21.50;64.20;;;;;;5076575;28;20054;-80
2022/09/04 04:35:16;;;;;;;3.05;1.60;;;21.40;64.20;;;;;;5034110;28;20460;-82
2022/09/04 04:38:00;;;;;;;6.57;2.17;;;21.50;64.40;;;;;;5066070;28;20617;-81
2022/09/04 04:40:44;;;;;;;3.25;1.33;;;21.40;64.20;;;;;;5063183;28;20028;-81
2022/09/04 04:43:30;;;;;;;4.82;1.50;;;21.40;64.20;;;;;;5048551;28;20070;-81
2022/09/04 04:46:06;;;;;;;3.85;1.27;;;21.50;64.40;;;;;;5062226;28;20351;-80
2022/09/04 04:48:38;;;;;;;4.28;1.58;;;21.40;64.20;;;;;;5062155;28;20166;-80
2022/09/04 04:51:23;;;;;;;9.30;2.10;;;21.50;64.40;;;;;;5045287;28;20085;-80
2022/09/04 04:54:01;;;;;;;4.05;1.90;;;21.50;64.60;;;;;;5065059;28;20031;-80
2022/09/04 04:56:52;;;;;;;4.38;1.55;;;21.50;64.60;;;;;;5075050;28;20033;-80
2022/09/04 04:59:46;;;;;;;5.65;2.25;;;21.40;64.40;;;;;;5066931;28;20110;-80
2022/09/04 05:02:24;;;;;;;3.95;1.70;;;21.50;64.60;;;;;;5063901;28;20031;-81
2022/09/04 05:05:38;;;;;;;5.35;1.83;;;21.50;64.60;;;;;;5063326;28;20456;-81
2022/09/04 05:08:20;;;;;;;4.20;1.70;;;21.40;64.50;;;;;;5001552;28;20088;-81
2022/09/04 05:11:08;;;;;;;4.43;1.87;;;21.40;64.40;;;;;;5051413;28;20032;-81
2022/09/04 05:14:02;;;;;;;6.32;2.03;;;21.40;64.40;;;;;;5053378;28;20032;-81
2022/09/04 05:16:58;;;;;;;4.68;1.88;;;21.40;64.50;;;;;;5064896;28;20394;-90
2022/09/04 05:19:49;;;;;;;4.25;2.05;;;21.40;64.60;;;;;;5034102;28;20088;-81
2022/09/04 05:22:19;;;;;;;2.97;1.52;;;21.40;64.60;;;;;;5075188;28;20051;-91
2022/09/04 05:25:14;;;;;;;6.15;1.63;;;21.40;64.60;;;;;;5064509;28;20050;-87
2022/09/04 05:27:59;;;;;;;5.18;1.80;;;21.40;64.70;;;;;;5075981;28;20417;-88
2022/09/04 05:30:47;;;;;;;5.50;1.55;;;21.40;64.80;;;;;;5053390;28;20070;-87
2022/09/04 05:33:39;;;;;;;5.53;1.83;;;21.40;64.80;;;;;;5029129;28;20043;-96
2022/09/04 05:36:31;;;;;;;5.53;1.73;;;21.40;64.80;;;;;;5054296;28;20020;-87
2022/09/04 05:39:15;;;;;;;6.43;1.70;;;21.40;64.80;;;;;;5062236;28;20033;-86
2022/09/04 05:42:02;;;;;;;5.65;1.88;;;21.40;64.70;;;;;;5057884;28;20086;-85
2022/09/04 05:44:38;;;;;;;5.03;1.48;;;21.40;64.80;;;;;;5043444;28;20265;-85
2022/09/04 05:47:38;;;;;;;3.83;1.33;;;21.40;64.80;;;;;;5055060;28;20442;-83
2022/09/04 05:50:31;;;;;;;6.35;2.15;;;21.40;65.50;;;;;;5063057;28;20037;-85
2022/09/04 05:53:16;;;;;;;5.38;1.88;;;21.40;64.80;;;;;;5065929;28;20039;-85
2022/09/04 05:55:57;;;;;;;6.35;1.77;;;21.40;64.80;;;;;;5054091;28;20039;-86
2022/09/04 05:58:48;;;;;;;6.10;1.83;;;21.40;64.90;;;;;;5056400;28;20275;-84
2022/09/04 06:01:51;;;;;;;4.60;1.42;;;21.40;64.90;;;;;;5056308;28;20082;-88
2022/09/04 06:04:56;;;;;;;8.48;2.95;;;21.40;64.90;;;;;;5049402;28;20032;-83
2022/09/04 06:07:33;;;;;;;3.53;1.70;;;21.40;64.90;;;;;;5007360;28;20044;-83
2022/09/04 06:10:19;;;;;;;4.53;1.77;;;21.40;64.80;;;;;;5077363;28;20033;-88
2022/09/04 06:13:22;;;;;;;4.57;1.67;;;21.40;64.90;;;;;;5040889;28;20025;-88
2022/09/04 06:15:48;;;;;;;;;;;21.40;64.90;;;;;;5081107;28;20044;-89
2022/09/04 06:18:39;;;;;;;6.40;2.70;;;21.50;64.90;;;;;;5071548;28;19920;-89
2022/09/04 06:21:31;;;;;;;5.38;2.35;;;21.50;64.80;;;;;;5082004;28;20127;-91
2022/09/04 06:24:18;;;;;;;4.40;1.85;;;21.40;64.60;;;;;;5064025;28;20101;-87
2022/09/04 06:26:54;;;;;;;6.97;2.47;;;21.50;64.80;;;;;;5086763;28;20104;-90
2022/09/04 06:29:44;;;;;;;6.82;2.60;;;21.50;64.70;;;;;;5047284;28;20123;-90
2022/09/04 06:32:29;;;;;;;6.40;1.77;;;21.50;64.80;;;;;;5077947;28;20028;-88
2022/09/04 06:35:13;;;;;;;8.32;3.03;;;21.60;64.80;;;;;;5062409;28;20025;-89
2022/09/04 06:37:53;;;;;;;9.13;3.28;;;21.50;64.80;;;;;;5036283;28;20044;-92
2022/09/04 06:40:22;;;;;;;9.00;4.20;;;21.60;65.30;;;;;;5072547;28;20044;-90
2022/09/04 06:43:19;;;;;;;10.95;3.05;;;21.50;65.20;;;;;;5047581;28;20038;-88
2022/09/04 06:45:52;;;;;;;8.98;3.33;;;21.60;65.40;;;;;;5083270;28;20089;-94
2022/09/04 06:48:56;;;;;;;10.32;3.20;;;21.60;65.30;;;;;;5043489;28;20043;-83
2022/09/04 06:51:52;;;;;;;8.70;3.03;;;21.60;65.50;;;;;;5058248;28;20105;-81
2022/09/04 06:54:30;;;;;;;8.90;3.28;;;21.70;65.50;;;;;;5056005;28;20055;-81
2022/09/04 06:56:59;;;;;;;9.52;2.95;;;21.80;65.50;;;;;;5061618;28;20356;-88
2022/09/04 06:59:49;;;;;;;7.97;3.28;;;21.80;65.40;;;;;;5035134;28;20036;-87
2022/09/04 07:02:35;;;;;;;7.28;2.17;;;21.80;65.40;;;;;;5058816;28;20017;-85
2022/09/04 07:05:21;;;;;;;6.90;2.97;;;21.80;65.40;;;;;;5029692;28;20201;-85
2022/09/04 07:07:56;;;;;;;6.28;2.92;;;21.90;65.40;;;;;;5022996;28;20094;-86
2022/09/04 07:10:43;;;;;;;7.43;3.10;;;22.00;65.50;;;;;;5046208;28;20475;-86
2022/09/04 07:13:29;;;;;;;7.90;3.03;;;22.00;65.50;;;;;;5063818;28;20036;-85
2022/09/04 07:16:27;;;;;;;6.30;2.40;;;22.00;65.50;;;;;;5054566;28;20041;-87
2022/09/04 07:19:20;;;;;;;7.25;2.70;;;22.10;65.50;;;;;;5047803;28;20098;-91
2022/09/04 07:22:30;;;;;;;8.75;2.88;;;22.10;65.40;;;;;;5032978;28;20036;-89
2022/09/04 07:25:25;;;;;;;7.90;2.47;;;22.20;65.50;;;;;;4997968;28;20044;-87
2022/09/04 07:28:21;;;;;;;11.00;3.20;;;22.20;65.40;;;;;;5061314;28;20040;-87
2022/09/04 07:30:57;;;;;;;7.15;3.38;;;22.30;65.50;;;;;;5046187;28;20021;-88
2022/09/04 07:33:44;;;;;;;6.70;2.58;;;22.30;65.30;;;;;;5042941;28;20032;-86
2022/09/04 07:36:33;;;;;;;10.23;3.33;;;22.40;65.50;;;;;;5033988;28;20471;-86
2022/09/04 07:39:42;;;;;;;10.10;3.58;;;22.40;65.50;;;;;;5046761;28;20481;-86
2022/09/04 07:42:17;;;;;;;11.32;3.78;;;22.40;65.40;;;;;;5036392;28;20032;-87
2022/09/04 07:44:53;;;;;;;91.72;20.50;;;22.50;65.50;;;;;;5046866;28;20036;-90
2022/09/04 07:47:42;;;;;;;55.75;12.80;;;22.60;66.20;;;;;;5064597;28;20060;-87
2022/09/04 07:50:18;;;;;;;24.83;7.30;;;22.70;65.70;;;;;;5050656;28;20052;-88
2022/09/04 07:52:56;;;;;;;16.83;4.93;;;22.80;65.50;;;;;;5038205;28;20053;-87
2022/09/04 07:55:40;;;;;;;14.90;5.35;;;22.90;65.40;;;;;;5060644;28;20032;-87
2022/09/04 07:58:47;;;;;;;15.05;4.45;;;23.10;65.50;;;;;;5051779;28;20048;-87
2022/09/04 08:01:23;;;;;;;15.93;5.40;;;23.20;65.50;;;;;;5053853;28;20090;-88
2022/09/04 08:03:59;;;;;;;7.30;3.10;;;23.30;65.40;;;;;;5025869;28;20067;-84
2022/09/04 08:06:48;;;;;;;13.68;4.15;;;23.50;65.60;;;;;;5042337;28;20253;-81
2022/09/04 08:09:35;;;;;;;13.20;4.53;;;23.60;65.50;;;;;;5025349;28;20263;-87
2022/09/04 08:12:24;;;;;;;16.60;3.85;;;23.80;65.50;;;;;;5047063;28;20028;-91
2022/09/04 08:14:54;;;;;;;9.73;2.67;;;24.00;65.30;;;;;;5066984;28;20025;-93
2022/09/04 08:17:53;;;;;;;9.45;3.25;;;24.20;65.20;;;;;;5063717;28;20407;-83
2022/09/04 08:20:41;;;;;;;8.05;2.80;;;24.30;65.00;;;;;;5055511;28;20237;-87
2022/09/04 08:23:31;;;;;;;12.60;3.65;;;24.50;65.10;;;;;;5062358;28;20036;-87
2022/09/04 08:26:02;;;;;;;8.85;2.72;;;24.60;64.80;;;;;;5031047;28;20032;-87
2022/09/04 08:29:16;;;;;;;8.25;2.33;;;24.80;64.80;;;;;;5020053;28;20044;-92
2022/09/04 08:31:46;;;;;;;8.10;2.35;;;25.00;64.80;;;;;;5041588;28;20025;-92
2022/09/04 08:34:34;;;;;;;7.88;2.30;;;25.10;64.50;;;;;;5046532;28;20017;-91
2022/09/04 08:37:39;;;;;;;8.00;2.45;;;25.20;64.20;;;;;;5029806;28;20476;-89
2022/09/04 08:40:27;;;;;;;8.98;3.30;;;25.20;63.90;;;;;;5059162;28;20029;-91
2022/09/04 08:43:32;;;;;;;6.72;2.65;;;25.20;63.80;;;;;;5054076;28;20032;-86
2022/09/04 08:46:28;;;;;;;8.20;2.53;;;25.20;63.80;;;;;;5064137;28;20036;-89
2022/09/04 08:49:15;;;;;;;11.63;3.42;;;25.10;63.70;;;;;;5040195;28;20043;-87
2022/09/04 08:52:03;;;;;;;8.85;2.53;;;25.10;63.70;;;;;;5037872;28;20433;-90
2022/09/04 08:54:56;;;;;;;11.25;2.78;;;25.10;63.80;;;;;;5041926;28;20032;-85
2022/09/04 08:57:34;;;;;;;7.07;2.25;;;25.10;63.70;;;;;;5058662;28;20031;-84
2022/09/04 09:00:14;;;;;;;14.55;2.53;;;25.10;63.70;;;;;;5059816;28;20036;-86
2022/09/04 09:03:13;;;;;;;9.75;2.55;;;25.10;63.60;;;;;;5037352;28;20432;-84
2022/09/04 09:06:08;;;;;;;5.93;2.40;;;25.10;63.60;;;;;;5052713;28;20063;-81
2022/09/04 09:08:52;;;;;;;8.05;3.15;;;25.10;63.60;;;;;;5050727;28;20271;-82
2022/09/04 09:11:54;;;;;;;8.32;2.63;;;25.20;63.50;;;;;;5045923;28;20036;-89
2022/09/04 09:14:33;;;;;;;8.48;2.90;;;25.20;63.30;;;;;;5046767;28;20495;-80
2022/09/04 09:17:21;;;;;;;11.18;2.63;;;25.20;63.30;;;;;;5027358;28;20094;-83
2022/09/04 09:19:50;;;;;;;10.63;3.30;;;25.20;63.30;;;;;;5038311;28;20094;-81
2022/09/04 09:22:54;;;;;;;12.27;2.72;;;25.10;63.20;;;;;;5044161;28;20029;-82
2022/09/04 09:25:33;;;;;;;8.05;2.40;;;25.10;63.20;;;;;;5054049;28;20045;-83
2022/09/04 09:28:29;;;;;;;5.10;2.13;;;25.00;63.30;;;;;;5042647;28;20097;-81
2022/09/04 09:31:07;;;;;;;6.97;2.05;;;24.90;63.10;;;;;;5063916;28;20017;-83
2022/09/04 09:34:24;;;;;;;6.22;2.10;;;25.00;63.30;;;;;;5062297;28;20040;-81
2022/09/04 09:37:09;;;;;;;6.82;2.17;;;25.00;63.30;;;;;;5024434;28;20516;-82
2022/09/04 09:40:05;;;;;;;6.07;1.92;;;25.00;63.20;;;;;;5047203;28;20028;-82
2022/09/04 09:42:53;;;;;;;5.47;1.58;;;25.20;63.00;;;;;;5045220;28;20074;-82
2022/09/04 09:45:36;;;;;;;8.48;1.83;;;25.50;62.70;;;;;;5058512;28;20048;-81
2022/09/04 09:48:30;;;;;;;6.65;2.38;;;25.90;62.20;;;;;;5054008;28;20423;-81
2022/09/04 09:51:17;;;;;;;8.63;1.80;;;26.20;61.60;;;;;;5033304;28;20033;-82
2022/09/04 09:54:06;;;;;;;4.57;1.50;;;26.50;61.30;;;;;;5057180;28;20170;-81
2022/09/04 09:57:10;;;;;;;5.40;1.83;;;26.70;60.80;;;;;;5060084;28;20373;-82
2022/09/04 10:00:04;;;;;;;6.85;1.70;;;26.90;60.30;;;;;;5042871;28;20033;-83
2022/09/04 10:02:53;;;;;;;7.18;2.10;;;27.00;60.10;;;;;;5082836;28;20036;-83
2022/09/04 10:05:53;;;;;;;4.18;1.70;;;27.20;60.00;;;;;;5036670;28;20016;-83
2022/09/04 10:08:33;;;;;;;4.18;1.23;;;27.30;59.50;;;;;;5036001;28;20045;-82
2022/09/04 10:11:17;;;;;;;3.08;1.35;;;27.40;59.20;;;;;;5067657;28;20031;-82
2022/09/04 10:14:18;;;;;;;2.38;1.40;;;27.40;59.10;;;;;;5048541;28;20032;-82
2022/09/04 10:16:57;;;;;;;5.40;1.48;;;27.20;59.10;;;;;;4997887;28;20206;-83
2022/09/04 10:19:26;;;;;;;3.22;1.45;;;27.20;59.20;;;;;;5048898;28;20684;-81
2022/09/04 10:22:18;;;;;;;5.10;1.77;;;27.30;59.20;;;;;;5067132;28;20114;-82
2022/09/04 10:25:22;;;;;;;4.18;1.40;;;27.30;58.80;;;;;;5054471;28;20051;-81
2022/09/04 10:28:13;;;;;;;3.83;1.73;;;27.40;58.60;;;;;;5029575;28;20043;-80
2022/09/04 10:30:58;;;;;;;9.35;2.40;;;27.60;58.40;;;;;;5065639;28;20074;-80
2022/09/04 10:33:55;;;;;;;10.07;3.08;;;27.80;57.90;;;;;;5061130;28;20089;-80
2022/09/04 10:36:36;;;;;;;8.02;3.03;;;28.00;57.80;;;;;;5054739;28;20031;-80
2022/09/04 10:42:31;;;;;;;6.07;1.92;;;28.20;57.40;;;;;;5044667;28;20556;-81
2022/09/04 10:45:29;;;;;;;7.43;2.50;;;28.30;57.20;;;;;;5049042;28;20028;-80
2022/09/04 10:48:08;;;;;;;7.50;2.95;;;28.30;57.60;;;;;;5054572;28;20388;-81
2022/09/04 10:51:15;;;;;;;8.85;3.00;;;28.30;57.10;;;;;;5061884;28;20580;-80
2022/09/04 10:53:58;;;;;;;5.97;2.28;;;28.30;56.90;;;;;;5003641;28;20034;-80
2022/09/04 10:56:29;;;;;;;10.65;2.72;;;28.40;57.00;;;;;;4987556;28;20104;-80
2022/09/04 10:59:09;;;;;;;8.82;2.83;;;28.40;56.80;;;;;;5013730;28;20041;-80
2022/09/04 11:01:52;;;;;;;10.45;2.88;;;28.30;56.50;;;;;;5062075;28;20031;-80
2022/09/04 11:04:36;;;;;;;9.63;3.13;;;28.20;56.50;;;;;;5047358;28;20050;-79
2022/09/04 11:07:14;;;;;;;8.25;3.50;;;28.00;56.60;;;;;;5048800;28;20024;-79
2022/09/04 11:09:45;;;;;;;10.10;3.25;;;27.80;56.80;;;;;;5064204;28;20522;-80
2022/09/04 11:12:28;;;;;;;10.93;3.17;;;27.70;57.70;;;;;;5056073;28;20024;-80
2022/09/04 11:15:20;;;;;;;13.25;3.53;;;27.60;57.20;;;;;;5048146;28;20028;-79
2022/09/04 11:18:13;;;;;;;7.32;2.10;;;27.50;57.40;;;;;;5061551;28;20391;-80
2022/09/04 11:21:01;;;;;;;5.97;2.05;;;27.40;57.40;;;;;;5059355;28;20033;-80
2022/09/04 11:24:00;;;;;;;6.78;2.72;;;27.50;57.40;;;;;;5066932;28;20044;-81
2022/09/04 11:26:46;;;;;;;6.95;2.55;;;27.50;57.40;;;;;;5032185;28;20134;-82
2022/09/04 11:29:26;;;;;;;8.15;2.58;;;27.50;57.50;;;;;;5055097;28;20024;-81
2022/09/04 11:32:21;;;;;;;7.32;2.80;;;27.40;57.50;;;;;;5040107;28;20025;-85
2022/09/04 11:35:02;;;;;;;9.27;2.53;;;27.50;57.40;;;;;;5024701;28;20046;-86
2022/09/04 11:37:49;;;;;;;8.43;1.80;;;27.50;57.20;;;;;;5045621;28;20070;-79
2022/09/04 11:40:39;;;;;;;8.38;2.38;;;27.60;57.00;;;;;;5064072;28;20024;-83
2022/09/04 11:43:35;;;;;;;8.23;2.38;;;27.80;56.90;;;;;;5072229;28;20039;-82
2022/09/04 11:46:13;;;;;;;5.72;1.90;;;27.90;56.60;;;;;;5053559;28;20037;-84
2022/09/04 11:48:52;;;;;;;7.35;1.70;;;28.00;56.50;;;;;;5059764;28;20115;-84
2022/09/04 11:51:40;;;;;;;8.68;2.97;;;28.00;56.50;;;;;;5065700;28;20274;-86
2022/09/04 11:54:44;;;;;;;7.15;2.25;;;28.00;56.50;;;;;;5070690;28;20641;-85
2022/09/04 11:57:22;;;;;;;6.15;2.03;;;28.00;56.50;;;;;;5053111;28;20100;-89
2022/09/04 12:00:09;;;;;;;6.28;2.55;;;28.00;56.50;;;;;;5061450;28;20048;-88
2022/09/04 12:02:59;;;;;;;9.68;2.42;;;28.10;56.40;;;;;;5059337;28;20092;-85
2022/09/04 12:05:41;;;;;;;9.60;3.45;;;28.30;56.20;;;;;;5057198;28;20033;-86
2022/09/04 12:08:25;;;;;;;9.00;2.70;;;28.40;56.10;;;;;;5028066;28;20511;-84
2022/09/04 12:11:33;;;;;;;9.07;3.53;;;28.50;55.90;;;;;;5049019;28;20029;-86
2022/09/04 12:14:19;;;;;;;12.00;3.55;;;28.70;55.90;;;;;;4953533;28;20240;-83
2022/09/04 12:17:30;;;;;;;7.55;2.28;;;28.80;55.70;;;;;;5030386;28;20049;-85
2022/09/04 12:20:23;;;;;;;8.63;2.40;;;28.90;55.30;;;;;;5003691;28;20060;-89
2022/09/04 12:23:27;;;;;;;10.88;3.17;;;28.90;55.10;;;;;;5027901;28;20113;-88
2022/09/04 12:26:21;;;;;;;5.75;2.17;;;28.80;55.30;;;;;;5003031;28;20036;-89
2022/09/04 12:29:08;;;;;;;5.65;2.05;;;28.60;55.50;;;;;;5049176;28;20029;-88
2022/09/04 12:31:56;;;;;;;6.28;2.00;;;28.50;55.60;;;;;;5028611;28;20041;-89
2022/09/04 12:34:34;;;;;;;7.55;3.22;;;28.70;55.60;;;;;;5034026;28;20255;-89
2022/09/04 12:37:23;;;;;;;7.25;2.35;;;28.80;55.30;;;;;;5047526;28;20078;-91
2022/09/04 12:40:16;;;;;;;12.55;2.85;;;28.90;55.00;;;;;;5040131;28;20049;-90
2022/09/04 12:42:56;;;;;;;6.28;2.67;;;29.00;54.80;;;;;;5059617;28;20217;-88
2022/09/04 12:45:50;;;;;;;6.13;2.63;;;29.10;54.70;;;;;;5070817;28;20127;-87
2022/09/04 12:48:34;;;;;;;7.78;2.35;;;29.20;54.50;;;;;;5051644;28;20033;-83
2022/09/04 12:51:10;;;;;;;9.60;2.30;;;29.20;54.30;;;;;;5067720;28;20130;-92
2022/09/04 12:53:45;;;;;;;7.43;1.90;;;29.30;54.20;;;;;;5050077;28;20024;-92
2022/09/04 12:56:21;;;;;;;7.38;2.05;;;29.40;54.00;;;;;;5047818;28;20662;-92
2022/09/04 12:59:17;;;;;;;7.88;2.47;;;29.50;54.00;;;;;;5035112;28;20037;-91
2022/09/04 13:01:55;;;;;;;7.28;2.10;;;29.50;53.70;;;;;;5045792;28;20038;-91
2022/09/04 13:04:26;;;;;;;6.35;1.83;;;29.50;53.60;;;;;;5012875;28;20093;-81
2022/09/04 13:07:40;;;;;;;6.53;2.28;;;29.50;53.70;;;;;;5059389;28;20037;-83
2022/09/04 13:10:21;;;;;;;7.35;2.38;;;29.50;53.50;;;;;;5040108;28;20051;-85
2022/09/04 13:13:01;;;;;;;6.50;2.00;;;29.40;53.70;;;;;;5053109;28;20391;-85
2022/09/04 13:15:42;;;;;;;6.95;2.80;;;29.40;53.70;;;;;;5045742;28;20041;-84
2022/09/04 13:18:30;;;;;;;6.00;2.33;;;29.40;53.80;;;;;;5062062;28;20040;-87
2022/09/04 13:21:24;;;;;;;5.13;2.42;;;29.40;53.80;;;;;;5060911;28;20402;-87
2022/09/04 13:23:59;;;;;;;4.85;1.88;;;29.40;53.70;;;;;;5046294;28;20048;-87
2022/09/04 13:26:41;;;;;;;7.32;2.20;;;29.40;53.70;;;;;;5054810;28;20046;-87
2022/09/04 13:29:39;;;;;;;6.10;2.58;;;29.30;53.50;;;;;;5045365;28;20028;-86
2022/09/04 13:32:33;;;;;;;6.15;2.55;;;29.30;53.60;;;;;;5025889;28;20107;-90
2022/09/04 13:35:08;;;;;;;6.90;2.50;;;29.30;53.50;;;;;;5055166;28;20028;-86
2022/09/04 13:37:44;;;;;;;8.43;2.50;;;29.30;53.50;;;;;;5064866;28;20059;-89
2022/09/04 13:40:31;;;;;;;5.38;2.20;;;29.30;53.40;;;;;;5027003;28;20371;-92
2022/09/04 13:43:22;;;;;;;8.10;2.47;;;29.30;53.40;;;;;;5030743;28;20373;-90
2022/09/04 13:45:55;;;;;;;6.60;2.42;;;29.30;53.20;;;;;;5030726;28;20442;-95
2022/09/04 13:48:42;;;;;;;;;;;29.30;53.20;;;;;;5037659;28;20587;-92
2022/09/04 13:51:11;;;;;;;8.77;2.40;;;29.30;53.40;;;;;;5047347;28;19920;-91
2022/09/04 13:54:06;;;;;;;11.70;3.50;;;29.20;53.30;;;;;;5009137;28;20040;-89
2022/09/04 13:56:38;;;;;;;5.55;2.15;;;29.10;53.40;;;;;;5007128;28;20231;-83
2022/09/04 13:59:08;;;;;;;6.90;2.70;;;29.00;53.50;;;;;;5053279;28;20069;-83
2022/09/04 14:01:44;;;;;;;7.97;2.67;;;28.90;53.60;;;;;;5056617;28;20024;-85
2022/09/04 14:04:28;;;;;;;8.60;2.33;;;28.80;53.80;;;;;;5062116;28;20021;-83
2022/09/04 14:07:05;;;;;;;9.10;3.08;;;28.70;53.80;;;;;;5045463;28;20028;-83
2022/09/04 14:09:38;;;;;;;7.00;2.97;;;28.70;54.10;;;;;;5063039;28;20035;-82
2022/09/04 14:12:10;;;;;;;6.43;2.50;;;28.70;54.00;;;;;;5036148;28;20035;-84
2022/09/04 14:14:42;;;;;;;7.60;2.50;;;28.70;54.00;;;;;;5063772;28;20370;-85
2022/09/04 14:17:09;;;;;;;11.73;2.50;;;28.60;54.00;;;;;;5045162;28;20035;-84
2022/09/04 14:19:58;;;;;;;7.65;2.70;;;28.50;54.20;;;;;;5049150;28;20374;-88
2022/09/04 14:22:30;;;;;;;8.35;2.28;;;28.40;54.50;;;;;;5044571;28;20047;-86
2022/09/04 14:25:20;;;;;;;7.15;1.85;;;28.40;54.70;;;;;;5063897;28;20043;-89